createdAt,value
2023-07-31T00:11:00.869Z,100.00
2023-07-31T00:14:03.947Z,100.00
2023-07-31T00:17:06.834Z,100.00
2023-07-31T00:20:09.818Z,100.00
2023-07-31T00:23:12.479Z,100.00
2023-07-31T00:26:15.284Z,100.00
2023-07-31T00:29:18.014Z,100.00
2023-07-31T00:32:20.760Z,100.00
2023-07-31T00:35:23.653Z,100.00
2023-07-31T00:38:26.480Z,100.00
2023-07-31T00:41:29.272Z,100.00
2023-07-31T00:44:31.766Z,100.00
2023-07-31T00:47:34.891Z,100.00
2023-07-31T00:50:37.738Z,100.00
2023-07-31T00:53:42.848Z,100.00
2023-07-31T00:56:49.693Z,100.00
2023-07-31T00:59:52.347Z,100.00
2023-07-31T01:02:55.339Z,100.00
2023-07-31T01:06:26.217Z,100.00
2023-07-31T01:09:50.531Z,100.00
2023-07-31T01:12:58.025Z,100.00
2023-07-31T01:16:00.702Z,100.00
2023-07-31T01:19:03.947Z,100.00
2023-07-31T01:22:43.228Z,100.00
2023-07-31T01:25:55.073Z,100.00
2023-07-31T01:29:04.670Z,100.00
2023-07-31T01:32:08.855Z,100.00
2023-07-31T01:35:11.759Z,100.00
2023-07-31T01:38:14.618Z,100.00
2023-07-31T01:41:19.071Z,100.00
2023-07-31T01:44:22.209Z,100.00
2023-07-31T01:47:25.031Z,100.00
2023-07-31T01:50:28.522Z,100.00
2023-07-31T01:53:34.591Z,100.00
2023-07-31T01:56:37.779Z,100.00
2023-07-31T01:59:41.217Z,100.00
2023-07-31T02:02:44.096Z,100.00
2023-07-31T02:05:47.904Z,100.00
2023-07-31T02:08:50.901Z,100.00
2023-07-31T02:11:53.676Z,100.00
2023-07-31T02:14:57.026Z,100.00
2023-07-31T02:17:59.891Z,100.00
2023-07-31T02:21:02.701Z,100.00
2023-07-31T02:24:05.556Z,100.00
2023-07-31T02:27:08.465Z,100.00
2023-07-31T02:30:11.680Z,100.00
2023-07-31T02:33:16.370Z,100.00
2023-07-31T02:36:19.033Z,100.00
2023-07-31T02:39:21.828Z,100.00
2023-07-31T02:42:24.470Z,100.00
2023-07-31T02:45:27.656Z,100.00
2023-07-31T02:48:30.162Z,100.00
2023-07-31T02:51:33.313Z,100.00
2023-07-31T02:54:35.848Z,100.00
2023-07-31T02:57:38.630Z,100.00
2023-07-31T03:00:44.969Z,100.00
2023-07-31T03:03:47.768Z,100.00
2023-07-31T03:06:50.366Z,100.00
2023-07-31T03:09:53.003Z,100.00
2023-07-31T03:12:57.249Z,100.00
2023-07-31T03:16:00.441Z,100.00
2023-07-31T03:19:03.131Z,100.00
2023-07-31T03:22:06.192Z,100.00
2023-07-31T03:25:11.096Z,100.00
2023-07-31T03:28:14.189Z,100.00
2023-07-31T03:31:17.050Z,100.00
2023-07-31T03:34:20.030Z,100.00
2023-07-31T03:37:22.780Z,100.00
2023-07-31T03:40:25.621Z,100.00
2023-07-31T03:43:28.513Z,100.00
2023-07-31T03:46:31.510Z,100.00
2023-07-31T03:49:34.017Z,100.00
2023-07-31T03:52:37.074Z,100.00
2023-07-31T03:55:39.564Z,100.00
2023-07-31T03:58:42.195Z,100.00
2023-07-31T04:01:44.840Z,100.00
2023-07-31T04:04:47.460Z,100.00
2023-07-31T04:07:50.248Z,100.00
2023-07-31T04:10:52.930Z,100.00
2023-07-31T04:13:55.787Z,100.00
2023-07-31T04:16:58.951Z,100.00
2023-07-31T04:20:01.859Z,100.00
2023-07-31T04:23:04.897Z,100.00
2023-07-31T04:26:07.332Z,100.00
2023-07-31T04:29:10.030Z,100.00
2023-07-31T04:32:12.698Z,100.00
2023-07-31T04:35:15.278Z,100.00
2023-07-31T04:38:18.142Z,100.00
2023-07-31T04:41:20.877Z,100.00
2023-07-31T04:44:23.466Z,100.00
2023-07-31T04:47:26.290Z,100.00
2023-07-31T04:50:28.902Z,100.00
2023-07-31T04:53:31.723Z,100.00
2023-07-31T04:56:34.266Z,100.00
2023-07-31T04:59:37.149Z,100.00
2023-07-31T05:02:41.777Z,100.00
2023-07-31T05:05:44.253Z,100.00
2023-07-31T05:08:47.047Z,100.00
2023-07-31T05:11:49.843Z,100.00
2023-07-31T05:14:52.525Z,100.00
2023-07-31T05:17:55.029Z,100.00
2023-07-31T05:20:58.068Z,100.00
2023-07-31T05:24:00.609Z,100.00
2023-07-31T05:27:03.542Z,100.00
2023-07-31T05:30:06.915Z,100.00
2023-07-31T05:33:11.507Z,100.00
2023-07-31T05:36:14.733Z,100.00
2023-07-31T05:39:17.478Z,100.00
2023-07-31T05:42:20.126Z,100.00
2023-07-31T05:45:22.925Z,100.00
2023-07-31T05:48:25.474Z,100.00
2023-07-31T05:51:28.927Z,100.00
2023-07-31T05:54:32.970Z,100.00
2023-07-31T05:57:35.491Z,100.00
2023-07-31T06:00:38.256Z,100.00
2023-07-31T06:03:40.926Z,100.00
2023-07-31T06:06:43.498Z,100.00
2023-07-31T06:09:46.350Z,100.00
2023-07-31T06:12:49.079Z,100.00
2023-07-31T06:15:52.160Z,100.00
2023-07-31T06:18:54.646Z,100.00
2023-07-31T06:21:57.235Z,100.00
2023-07-31T06:24:59.991Z,100.00
2023-07-31T06:28:02.677Z,100.00
2023-07-31T06:31:05.381Z,100.00
2023-07-31T06:34:08.120Z,100.00
2023-07-31T06:37:10.657Z,100.00
2023-07-31T06:40:13.253Z,100.00
2023-07-31T06:43:15.932Z,100.00
2023-07-31T06:46:18.567Z,100.00
2023-07-31T06:49:21.193Z,100.00
2023-07-31T06:52:23.766Z,100.00
2023-07-31T06:55:27.077Z,92.69
2023-07-31T06:58:29.698Z,93.84
2023-07-31T07:01:32.318Z,89.13
2023-07-31T07:04:35.006Z,90.38
2023-07-31T07:07:37.636Z,87.05
2023-07-31T07:10:40.307Z,82.40
2023-07-31T07:13:42.903Z,74.79
2023-07-31T07:16:45.554Z,70.44
2023-07-31T07:19:49.148Z,71.72
2023-07-31T07:22:51.748Z,71.79
2023-07-31T07:25:54.384Z,71.22
2023-07-31T07:28:58.779Z,73.16
2023-07-31T07:32:02.760Z,70.50
2023-07-31T07:35:05.722Z,69.45
2023-07-31T07:38:08.401Z,67.91
2023-07-31T07:41:11.251Z,66.93
2023-07-31T07:44:14.559Z,65.41
2023-07-31T07:47:17.664Z,65.12
2023-07-31T07:50:20.248Z,61.54
2023-07-31T07:53:22.919Z,60.15
2023-07-31T07:56:27.477Z,60.66
2023-07-31T07:59:29.989Z,63.07
2023-07-31T08:02:32.675Z,61.37
2023-07-31T08:05:35.643Z,60.55
2023-07-31T08:08:39.020Z,57.73
2023-07-31T08:11:41.982Z,53.57
2023-07-31T08:14:44.634Z,55.06
2023-07-31T08:17:47.351Z,54.61
2023-07-31T08:20:50.389Z,55.58
2023-07-31T08:23:53.094Z,56.27
2023-07-31T08:26:55.735Z,54.64
2023-07-31T08:29:58.341Z,55.39
2023-07-31T08:33:01.709Z,53.40
2023-07-31T08:36:05.034Z,56.14
2023-07-31T08:39:07.581Z,59.04
2023-07-31T08:42:10.865Z,58.62
2023-07-31T08:45:18.302Z,58.26
2023-07-31T08:48:23.630Z,57.96
2023-07-31T08:51:26.282Z,64.26
2023-07-31T08:54:32.245Z,66.08
2023-07-31T08:57:40.412Z,73.15
2023-07-31T09:00:45.732Z,71.16
2023-07-31T09:03:49.508Z,70.55
2023-07-31T09:06:58.427Z,70.34
2023-07-31T09:10:01.028Z,70.28
2023-07-31T09:13:04.015Z,70.67
2023-07-31T09:16:06.664Z,69.18
2023-07-31T09:19:09.453Z,67.28
2023-07-31T09:22:11.870Z,69.57
2023-07-31T09:25:22.722Z,68.21
2023-07-31T09:28:32.747Z,71.13
2023-07-31T09:31:43.465Z,70.51
2023-07-31T09:34:46.365Z,69.37
2023-07-31T09:37:58.137Z,68.58
2023-07-31T09:41:01.101Z,68.25
2023-07-31T09:44:03.830Z,69.48
2023-07-31T09:47:06.633Z,68.49
2023-07-31T09:50:10.449Z,68.10
2023-07-31T09:53:13.259Z,58.63
2023-07-31T09:56:16.746Z,55.25
2023-07-31T09:59:24.234Z,52.94
2023-07-31T10:02:28.637Z,49.85
2023-07-31T10:05:52.031Z,56.49
2023-07-31T10:08:56.126Z,56.41
2023-07-31T10:12:06.518Z,56.82
2023-07-31T10:15:10.638Z,55.75
2023-07-31T10:18:13.961Z,52.29
2023-07-31T10:21:16.950Z,53.70
2023-07-31T10:24:19.774Z,58.06
2023-07-31T10:27:22.474Z,55.87
2023-07-31T10:30:30.931Z,56.02
2023-07-31T10:33:34.248Z,57.06
2023-07-31T10:36:37.078Z,59.11
2023-07-31T10:39:40.809Z,54.69
2023-07-31T10:42:46.479Z,57.58
2023-07-31T10:45:50.096Z,57.93
2023-07-31T10:49:00.844Z,58.00
2023-07-31T10:52:05.608Z,59.39
2023-07-31T10:55:32.677Z,56.64
2023-07-31T10:58:36.318Z,52.40
2023-07-31T11:01:59.130Z,52.32
2023-07-31T11:05:12.050Z,52.07
2023-07-31T11:08:47.404Z,49.38
2023-07-31T11:11:53.116Z,49.55
2023-07-31T11:14:58.013Z,50.24
2023-07-31T11:18:04.884Z,49.62
2023-07-31T11:21:07.640Z,49.21
2023-07-31T11:24:10.214Z,46.45
2023-07-31T11:27:12.849Z,48.66
2023-07-31T11:30:15.398Z,51.36
2023-07-31T11:33:17.949Z,50.00
2023-07-31T11:36:22.169Z,51.05
2023-07-31T11:39:24.844Z,52.77
2023-07-31T11:42:27.475Z,54.26
2023-07-31T11:45:31.303Z,53.12
2023-07-31T11:48:36.998Z,54.29
2023-07-31T11:51:39.998Z,56.25
2023-07-31T11:54:42.861Z,52.16
2023-07-31T11:57:47.987Z,51.54
2023-07-31T12:00:51.196Z,51.25
2023-07-31T12:03:54.079Z,54.43
2023-07-31T12:06:58.937Z,55.21
2023-07-31T12:10:01.872Z,54.16
2023-07-31T12:13:07.214Z,51.72
2023-07-31T12:16:09.888Z,48.34
2023-07-31T12:19:12.734Z,48.07
2023-07-31T12:22:16.731Z,47.49
2023-07-31T12:25:19.419Z,48.14
2023-07-31T12:28:23.971Z,47.71
2023-07-31T12:31:30.066Z,49.35
2023-07-31T12:34:43.240Z,50.54
2023-07-31T12:37:45.888Z,48.36
2023-07-31T12:40:48.414Z,45.50
2023-07-31T12:43:51.002Z,46.04
2023-07-31T12:46:53.637Z,42.85
2023-07-31T12:49:56.332Z,45.05
2023-07-31T12:52:59.003Z,47.27
2023-07-31T12:56:02.549Z,45.99
2023-07-31T12:59:05.001Z,45.27
2023-07-31T13:02:08.338Z,43.23
2023-07-31T13:05:11.608Z,43.06
2023-07-31T13:08:17.027Z,42.78
2023-07-31T13:11:19.725Z,43.64
2023-07-31T13:14:22.496Z,44.32
2023-07-31T13:17:25.211Z,46.01
2023-07-31T13:20:28.401Z,47.60
2023-07-31T13:23:31.104Z,48.97
2023-07-31T13:26:34.079Z,50.15
2023-07-31T13:29:36.562Z,51.55
2023-07-31T13:32:39.997Z,48.46
2023-07-31T13:35:43.097Z,46.81
2023-07-31T13:38:45.818Z,44.97
2023-07-31T13:41:48.392Z,46.28
2023-07-31T13:44:51.067Z,47.82
2023-07-31T13:47:53.698Z,47.98
2023-07-31T13:50:56.546Z,49.24
2023-07-31T13:53:59.009Z,49.23
2023-07-31T13:57:02.022Z,51.06
2023-07-31T14:00:05.543Z,53.69
2023-07-31T14:03:08.615Z,53.93
2023-07-31T14:06:11.581Z,54.36
2023-07-31T14:09:15.756Z,53.26
2023-07-31T14:12:32.104Z,55.38
2023-07-31T14:15:43.876Z,55.14
2023-07-31T14:18:47.082Z,56.83
2023-07-31T14:22:04.887Z,55.12
2023-07-31T14:25:12.550Z,55.69
2023-07-31T14:28:15.446Z,57.30
2023-07-31T14:31:17.901Z,56.38
2023-07-31T14:34:20.946Z,54.48
2023-07-31T14:37:23.364Z,52.54
2023-07-31T14:40:26.049Z,52.24
2023-07-31T14:43:28.511Z,49.84
2023-07-31T14:46:31.203Z,48.75
2023-07-31T14:49:33.595Z,48.78
2023-07-31T14:52:36.452Z,48.91
2023-07-31T14:55:38.915Z,50.04
2023-07-31T14:58:41.657Z,51.42
2023-07-31T15:01:44.226Z,52.77
2023-07-31T15:04:47.159Z,54.85
2023-07-31T15:07:49.631Z,57.09
2023-07-31T15:10:58.381Z,57.25
2023-07-31T15:14:01.055Z,58.37
2023-07-31T15:17:04.034Z,57.57
2023-07-31T15:20:07.338Z,59.52
2023-07-31T15:23:10.093Z,60.64
2023-07-31T15:26:12.872Z,62.76
2023-07-31T15:29:20.782Z,62.90
2023-07-31T15:32:24.895Z,60.68
2023-07-31T15:35:27.801Z,61.07
2023-07-31T15:38:30.326Z,62.95
2023-07-31T15:41:33.063Z,64.74
2023-07-31T15:44:35.814Z,64.83
2023-07-31T15:47:39.097Z,67.50
2023-07-31T15:50:41.997Z,64.98
2023-07-31T15:53:44.759Z,66.28
2023-07-31T15:56:47.126Z,65.38
2023-07-31T15:59:49.930Z,66.76
2023-07-31T16:02:52.488Z,69.24
2023-07-31T16:05:55.179Z,69.46
2023-07-31T16:08:57.810Z,71.00
2023-07-31T16:12:00.455Z,71.88
2023-07-31T16:15:03.267Z,71.69
2023-07-31T16:18:05.965Z,72.76
2023-07-31T16:21:08.670Z,72.42
2023-07-31T16:24:11.729Z,70.54
2023-07-31T16:27:14.411Z,70.71
2023-07-31T16:30:17.347Z,71.23
2023-07-31T16:33:19.934Z,71.84
2023-07-31T16:36:23.011Z,72.84
2023-07-31T16:39:25.867Z,72.12
2023-07-31T16:42:28.564Z,73.40
2023-07-31T16:45:31.176Z,76.75
2023-07-31T16:48:33.881Z,75.87
2023-07-31T16:51:36.725Z,76.96
2023-07-31T16:54:39.568Z,77.48
2023-07-31T16:57:41.986Z,79.25
2023-07-31T17:00:44.986Z,77.60
2023-07-31T17:03:47.618Z,86.95
2023-07-31T17:06:50.959Z,89.43
2023-07-31T17:09:55.648Z,86.46
2023-07-31T17:12:58.488Z,86.95
2023-07-31T17:16:01.267Z,86.37
2023-07-31T17:19:04.715Z,86.52
2023-07-31T17:22:07.489Z,89.70
2023-07-31T17:25:10.511Z,94.26
2023-07-31T17:28:13.205Z,96.36
2023-07-31T17:31:16.279Z,98.88
2023-07-31T17:34:18.666Z,100.00
2023-07-31T17:37:21.479Z,100.00
2023-07-31T17:40:24.219Z,100.00
2023-07-31T17:43:27.180Z,100.00
2023-07-31T17:46:29.798Z,100.00
2023-07-31T17:49:32.591Z,100.00
2023-07-31T17:52:38.141Z,100.00
2023-07-31T17:55:41.369Z,100.00
2023-07-31T17:58:43.856Z,100.00
2023-07-31T18:01:46.738Z,100.00
2023-07-31T18:04:49.125Z,100.00
2023-07-31T18:07:52.054Z,100.00
2023-07-31T18:10:54.659Z,100.00
2023-07-31T18:13:58.442Z,100.00
2023-07-31T18:17:01.808Z,100.00
2023-07-31T18:20:06.220Z,100.00
2023-07-31T18:23:08.902Z,100.00
2023-07-31T18:26:12.188Z,100.00
2023-07-31T18:29:14.769Z,100.00
2023-07-31T18:32:18.025Z,100.00
2023-07-31T18:35:20.567Z,100.00
2023-07-31T18:38:23.550Z,100.00
2023-07-31T18:41:26.182Z,100.00
2023-07-31T18:44:28.707Z,100.00
2023-07-31T18:47:31.504Z,100.00
2023-07-31T18:50:34.318Z,100.00
2023-07-31T18:53:37.064Z,100.00
2023-07-31T18:56:40.300Z,100.00
2023-07-31T18:59:43.129Z,100.00
2023-07-31T19:02:45.829Z,100.00
2023-07-31T19:05:48.288Z,100.00
2023-07-31T19:08:52.428Z,100.00
2023-07-31T19:11:55.126Z,100.00
2023-07-31T19:14:58.118Z,100.00
2023-07-31T19:18:02.056Z,100.00
2023-07-31T19:21:04.675Z,100.00
2023-07-31T19:24:07.290Z,100.00
2023-07-31T19:27:10.150Z,100.00
2023-07-31T19:30:12.882Z,100.00
2023-07-31T19:33:15.885Z,100.00
2023-07-31T19:36:18.337Z,100.00
2023-07-31T19:39:21.398Z,100.00
2023-07-31T19:42:23.966Z,100.00
2023-07-31T19:45:31.206Z,100.00
2023-07-31T19:48:33.839Z,100.00
2023-07-31T19:51:36.565Z,100.00
2023-07-31T19:54:39.139Z,100.00
2023-07-31T19:57:41.940Z,100.00
2023-07-31T20:00:44.405Z,100.00
2023-07-31T20:03:47.191Z,100.00
2023-07-31T20:06:49.594Z,100.00
2023-07-31T20:09:52.513Z,100.00
2023-07-31T20:12:55.202Z,100.00
2023-07-31T20:15:57.931Z,100.00
2023-07-31T20:19:00.674Z,100.00
2023-07-31T20:22:03.272Z,100.00
2023-07-31T20:25:06.377Z,100.00
2023-07-31T20:28:09.553Z,100.00
2023-07-31T20:31:12.380Z,100.00
2023-07-31T20:34:15.342Z,100.00
2023-07-31T20:37:17.881Z,100.00
2023-07-31T20:40:20.617Z,100.00
2023-07-31T20:43:23.354Z,100.00
2023-07-31T20:46:26.023Z,100.00
2023-07-31T20:49:28.666Z,100.00
2023-07-31T20:52:31.361Z,100.00
2023-07-31T20:55:34.027Z,100.00
2023-07-31T20:58:36.844Z,100.00
2023-07-31T21:01:39.336Z,100.00
2023-07-31T21:04:41.956Z,100.00
2023-07-31T21:07:44.432Z,100.00
2023-07-31T21:10:49.716Z,100.00
2023-07-31T21:13:52.183Z,100.00
2023-07-31T21:16:55.060Z,100.00
2023-07-31T21:19:57.506Z,100.00
2023-07-31T21:23:05.107Z,100.00
2023-07-31T21:26:07.722Z,100.00
2023-07-31T21:29:10.660Z,100.00
2023-07-31T21:32:13.460Z,100.00
2023-07-31T21:35:16.062Z,100.00
2023-07-31T21:38:18.500Z,100.00
2023-07-31T21:41:21.228Z,100.00
2023-07-31T21:44:23.878Z,100.00
2023-07-31T21:47:26.606Z,100.00
2023-07-31T21:50:29.310Z,100.00
2023-07-31T21:53:32.160Z,100.00
2023-07-31T21:56:34.991Z,100.00
2023-07-31T21:59:39.335Z,100.00
2023-07-31T22:02:42.244Z,100.00
2023-07-31T22:05:45.490Z,100.00
2023-07-31T22:08:47.993Z,100.00
2023-07-31T22:11:50.769Z,100.00
2023-07-31T22:14:53.401Z,100.00
2023-07-31T22:17:56.027Z,100.00
2023-07-31T22:20:58.693Z,100.00
2023-07-31T22:24:01.429Z,100.00
2023-07-31T22:27:04.312Z,100.00
2023-07-31T22:30:08.242Z,100.00
2023-07-31T22:33:11.637Z,100.00
2023-07-31T22:36:14.388Z,100.00
2023-07-31T22:39:16.853Z,100.00
2023-07-31T22:42:20.083Z,100.00
2023-07-31T22:45:22.769Z,100.00
2023-07-31T22:48:25.520Z,100.00
2023-07-31T22:51:28.111Z,100.00
2023-07-31T22:54:30.997Z,100.00
2023-07-31T22:57:33.582Z,100.00
2023-07-31T23:00:36.457Z,100.00
2023-07-31T23:03:38.930Z,100.00
2023-07-31T23:06:42.243Z,100.00
2023-07-31T23:09:44.831Z,100.00
2023-07-31T23:12:47.750Z,100.00
2023-07-31T23:15:50.552Z,100.00
2023-07-31T23:18:53.230Z,100.00
2023-07-31T23:21:55.974Z,100.00
2023-07-31T23:24:58.774Z,100.00
2023-07-31T23:28:01.474Z,100.00
2023-07-31T23:31:05.350Z,100.00
2023-07-31T23:34:07.954Z,100.00
2023-07-31T23:37:10.972Z,100.00
2023-07-31T23:40:14.069Z,100.00
2023-07-31T23:43:16.835Z,100.00
2023-07-31T23:46:19.724Z,100.00
2023-07-31T23:49:22.204Z,100.00
2023-07-31T23:52:25.074Z,100.00
2023-07-31T23:55:27.986Z,100.00
2023-07-31T23:58:32.322Z,100.00
